sensor_id;sensor_type;location;lat;lon;timestamp;pressure;altitude;pressure_sealevel;temperature;humidity
16481;BME280;44634;54.110;12.138;2023-11-19T00:02:01;100927.94;;;6.70;100.00
16481;BME280;44634;54.110;12.138;2023-11-19T00:04:36;100901.78;;;6.69;100.00
16481;BME280;44634;54.110;12.138;2023-11-19T00:07:05;100890.91;;;6.86;100.00
16481;BME280;44634;54.110;12.138;2023-11-19T00:09:34;100877.56;;;6.76;100.00
16481;BME280;44634;54.110;12.138;2023-11-19T00:12:04;100854.34;;;6.34;100.00
16481;BME280;44634;54.110;12.138;2023-11-19T00:14:39;100840.00;;;6.63;100.00
16481;BME280;44634;54.110;12.138;2023-11-19T00:17:09;100837.25;;;6.65;100.00
16481;BME280;44634;54.110;12.138;2023-11-19T00:19:40;100823.81;;;6.69;100.00
16481;BME280;44634;54.110;12.138;2023-11-19T00:22:10;100825.13;;;6.75;100.00
16481;BME280;44634;54.110;12.138;2023-11-19T00:24:39;100830.72;;;6.70;100.00
16481;BME280;44634;54.110;12.138;2023-11-19T00:27:08;100833.75;;;6.40;100.00
16481;BME280;44634;54.110;12.138;2023-11-19T00:29:51;100815.91;;;6.69;100.00
16481;BME280;44634;54.110;12.138;2023-11-19T00:32:27;100802.34;;;6.99;100.00
16481;BME280;44634;54.110;12.138;2023-11-19T00:34:59;100802.56;;;6.72;100.00
16481;BME280;44634;54.110;12.138;2023-11-19T00:37:27;100797.78;;;6.53;100.00
16481;BME280;44634;54.110;12.138;2023-11-19T00:39:56;100779.56;;;6.63;100.00
16481;BME280;44634;54.110;12.138;2023-11-19T00:42:25;100753.47;;;6.73;100.00
16481;BME280;44634;54.110;12.138;2023-11-19T00:44:54;100746.94;;;6.54;100.00
16481;BME280;44634;54.110;12.138;2023-11-19T00:47:22;100741.13;;;6.38;100.00
16481;BME280;44634;54.110;12.138;2023-11-19T00:49:54;100723.66;;;6.85;100.00
16481;BME280;44634;54.110;12.138;2023-11-19T00:52:28;100717.69;;;6.59;100.00
16481;BME280;44634;54.110;12.138;2023-11-19T00:54:58;100681.97;;;6.80;100.00
16481;BME280;44634;54.110;12.138;2023-11-19T00:57:27;100668.47;;;6.26;100.00
16481;BME280;44634;54.110;12.138;2023-11-19T00:59:59;100651.53;;;6.54;100.00
16481;BME280;44634;54.110;12.138;2023-11-19T01:02:47;100651.19;;;6.59;100.00
16481;BME280;44634;54.110;12.138;2023-11-19T01:05:19;100641.34;;;6.49;100.00
16481;BME280;44634;54.110;12.138;2023-11-19T01:07:52;100617.31;;;6.67;100.00
16481;BME280;44634;54.110;12.138;2023-11-19T01:10:23;100608.63;;;6.42;100.00
16481;BME280;44634;54.110;12.138;2023-11-19T01:13:20;100607.13;;;6.51;100.00
16481;BME280;44634;54.110;12.138;2023-11-19T01:15:59;100598.91;;;6.32;100.00
16481;BME280;44634;54.110;12.138;2023-11-19T01:18:29;100581.69;;;6.51;100.00
16481;BME280;44634;54.110;12.138;2023-11-19T01:20:59;100647.69;;;6.47;100.00
16481;BME280;44634;54.110;12.138;2023-11-19T01:23:28;100621.47;;;6.58;100.00
16481;BME280;44634;54.110;12.138;2023-11-19T01:25:58;100609.75;;;6.27;100.00
16481;BME280;44634;54.110;12.138;2023-11-19T01:28:42;100629.34;;;6.23;100.00
16481;BME280;44634;54.110;12.138;2023-11-19T01:31:16;100647.03;;;6.08;100.00
16481;BME280;44634;54.110;12.138;2023-11-19T01:33:44;100654.56;;;6.37;100.00
16481;BME280;44634;54.110;12.138;2023-11-19T01:36:16;100647.47;;;5.89;100.00
16481;BME280;44634;54.110;12.138;2023-11-19T01:38:55;100681.09;;;6.21;100.00
16481;BME280;44634;54.110;12.138;2023-11-19T01:41:24;100688.53;;;5.78;100.00
16481;BME280;44634;54.110;12.138;2023-11-19T01:43:52;100729.28;;;6.20;100.00
16481;BME280;44634;54.110;12.138;2023-11-19T01:46:20;100709.91;;;6.10;100.00
16481;BME280;44634;54.110;12.138;2023-11-19T01:48:49;100704.09;;;6.17;100.00
16481;BME280;44634;54.110;12.138;2023-11-19T01:51:19;100691.72;;;6.07;100.00
16481;BME280;44634;54.110;12.138;2023-11-19T01:53:47;100688.69;;;6.13;100.00
16481;BME280;44634;54.110;12.138;2023-11-19T01:56:15;100683.28;;;5.90;100.00
16481;BME280;44634;54.110;12.138;2023-11-19T01:58:44;100688.22;;;5.82;100.00
16481;BME280;44634;54.110;12.138;2023-11-19T02:01:13;100694.34;;;6.07;100.00
16481;BME280;44634;54.110;12.138;2023-11-19T02:03:43;100692.94;;;6.26;100.00
16481;BME280;44634;54.110;12.138;2023-11-19T02:06:12;100665.66;;;6.16;100.00
16481;BME280;44634;54.110;12.138;2023-11-19T02:08:42;100653.44;;;6.04;100.00
16481;BME280;44634;54.110;12.138;2023-11-19T02:11:11;100658.25;;;6.34;100.00
16481;BME280;44634;54.110;12.138;2023-11-19T02:13:41;100661.31;;;6.28;100.00
16481;BME280;44634;54.110;12.138;2023-11-19T02:16:11;100645.09;;;6.34;100.00
16481;BME280;44634;54.110;12.138;2023-11-19T02:18:39;100650.22;;;6.24;100.00
16481;BME280;44634;54.110;12.138;2023-11-19T02:21:07;100625.88;;;6.22;100.00
16481;BME280;44634;54.110;12.138;2023-11-19T02:23:37;100644.63;;;6.29;100.00
16481;BME280;44634;54.110;12.138;2023-11-19T02:26:12;100643.84;;;6.16;100.00
16481;BME280;44634;54.110;12.138;2023-11-19T02:28:43;100645.84;;;6.12;100.00
16481;BME280;44634;54.110;12.138;2023-11-19T02:31:12;100654.56;;;6.37;100.00
16481;BME280;44634;54.110;12.138;2023-11-19T02:33:40;100640.81;;;6.33;100.00
16481;BME280;44634;54.110;12.138;2023-11-19T02:36:09;100627.75;;;6.20;100.00
16481;BME280;44634;54.110;12.138;2023-11-19T02:38:37;100624.81;;;6.60;100.00
16481;BME280;44634;54.110;12.138;2023-11-19T02:41:08;100607.69;;;6.19;100.00
16481;BME280;44634;54.110;12.138;2023-11-19T02:43:37;100587.50;;;6.44;100.00
16481;BME280;44634;54.110;12.138;2023-11-19T02:46:09;100559.78;;;6.05;100.00
16481;BME280;44634;54.110;12.138;2023-11-19T02:48:40;100592.22;;;6.28;100.00
16481;BME280;44634;54.110;12.138;2023-11-19T02:51:08;100610.00;;;6.24;100.00
16481;BME280;44634;54.110;12.138;2023-11-19T02:53:37;100591.38;;;6.27;100.00
16481;BME280;44634;54.110;12.138;2023-11-19T02:56:07;100593.53;;;6.33;100.00
16481;BME280;44634;54.110;12.138;2023-11-19T02:58:42;100597.25;;;6.07;100.00
16481;BME280;44634;54.110;12.138;2023-11-19T03:01:12;100610.78;;;6.13;100.00
16481;BME280;44634;54.110;12.138;2023-11-19T03:03:50;100642.66;;;6.20;100.00
16481;BME280;44634;54.110;12.138;2023-11-19T03:06:21;100672.88;;;6.49;100.00
16481;BME280;44634;54.110;12.138;2023-11-19T03:08:51;100671.34;;;6.23;100.00
16481;BME280;44634;54.110;12.138;2023-11-19T03:11:18;100694.34;;;6.43;100.00
16481;BME280;44634;54.110;12.138;2023-11-19T03:13:47;100681.72;;;6.24;100.00
16481;BME280;44634;54.110;12.138;2023-11-19T03:16:16;100672.00;;;6.14;100.00
16481;BME280;44634;54.110;12.138;2023-11-19T03:18:44;100703.16;;;6.18;100.00
16481;BME280;44634;54.110;12.138;2023-11-19T03:21:15;100793.47;;;6.03;100.00
16481;BME280;44634;54.110;12.138;2023-11-19T03:23:43;100771.69;;;6.39;100.00
16481;BME280;44634;54.110;12.138;2023-11-19T03:26:13;100765.44;;;6.16;100.00
16481;BME280;44634;54.110;12.138;2023-11-19T03:28:42;100772.00;;;6.35;100.00
16481;BME280;44634;54.110;12.138;2023-11-19T03:31:10;100798.84;;;6.51;100.00
16481;BME280;44634;54.110;12.138;2023-11-19T03:33:40;100769.09;;;6.50;100.00
16481;BME280;44634;54.110;12.138;2023-11-19T03:36:08;100768.13;;;6.28;100.00
16481;BME280;44634;54.110;12.138;2023-11-19T03:38:37;100797.31;;;6.72;100.00
16481;BME280;44634;54.110;12.138;2023-11-19T03:41:12;100781.47;;;6.37;100.00
16481;BME280;44634;54.110;12.138;2023-11-19T03:43:40;100772.78;;;6.24;100.00
16481;BME280;44634;54.110;12.138;2023-11-19T03:46:15;100745.63;;;6.36;100.00
16481;BME280;44634;54.110;12.138;2023-11-19T03:48:46;100757.47;;;6.05;100.00
16481;BME280;44634;54.110;12.138;2023-11-19T03:51:15;100758.84;;;6.71;100.00
16481;BME280;44634;54.110;12.138;2023-11-19T03:53:44;100749.19;;;6.35;100.00
16481;BME280;44634;54.110;12.138;2023-11-19T03:56:15;100742.47;;;6.68;100.00
16481;BME280;44634;54.110;12.138;2023-11-19T03:58:43;100704.31;;;6.62;100.00
16481;BME280;44634;54.110;12.138;2023-11-19T04:01:11;100689.19;;;6.66;100.00
16481;BME280;44634;54.110;12.138;2023-11-19T04:03:41;100686.53;;;6.54;100.00
16481;BME280;44634;54.110;12.138;2023-11-19T04:06:14;100688.09;;;6.57;100.00
16481;BME280;44634;54.110;12.138;2023-11-19T04:08:42;100698.06;;;6.76;100.00
16481;BME280;44634;54.110;12.138;2023-11-19T04:11:14;100686.47;;;6.78;100.00
16481;BME280;44634;54.110;12.138;2023-11-19T04:13:42;100675.47;;;6.73;100.00
16481;BME280;44634;54.110;12.138;2023-11-19T04:16:10;100680.59;;;6.99;100.00
16481;BME280;44634;54.110;12.138;2023-11-19T04:18:38;100665.97;;;6.83;100.00
16481;BME280;44634;54.110;12.138;2023-11-19T04:21:07;100671.78;;;6.76;100.00
16481;BME280;44634;54.110;12.138;2023-11-19T04:23:37;100730.22;;;6.55;100.00
16481;BME280;44634;54.110;12.138;2023-11-19T04:26:07;100725.03;;;6.43;100.00
16481;BME280;44634;54.110;12.138;2023-11-19T04:28:37;100718.22;;;6.40;100.00
16481;BME280;44634;54.110;12.138;2023-11-19T04:31:07;100723.88;;;6.34;100.00
16481;BME280;44634;54.110;12.138;2023-11-19T04:33:37;100711.78;;;6.68;100.00
16481;BME280;44634;54.110;12.138;2023-11-19T04:36:06;100691.06;;;6.64;100.00
16481;BME280;44634;54.110;12.138;2023-11-19T04:38:40;100702.53;;;6.86;100.00
16481;BME280;44634;54.110;12.138;2023-11-19T04:41:08;100684.00;;;6.53;100.00
16481;BME280;44634;54.110;12.138;2023-11-19T04:43:40;100712.78;;;5.94;100.00
16481;BME280;44634;54.110;12.138;2023-11-19T04:46:09;100762.41;;;6.46;100.00
16481;BME280;44634;54.110;12.138;2023-11-19T04:48:48;100786.72;;;6.37;100.00
16481;BME280;44634;54.110;12.138;2023-11-19T04:51:16;100797.06;;;6.51;100.00
16481;BME280;44634;54.110;12.138;2023-11-19T04:53:58;100812.16;;;6.24;100.00
16481;BME280;44634;54.110;12.138;2023-11-19T04:56:28;100917.13;;;6.62;100.00
16481;BME280;44634;54.110;12.138;2023-11-19T04:59:17;100903.88;;;6.64;100.00
16481;BME280;44634;54.110;12.138;2023-11-19T05:01:49;100902.28;;;7.34;100.00
16481;BME280;44634;54.110;12.138;2023-11-19T05:04:19;100837.88;;;6.92;100.00
16481;BME280;44634;54.110;12.138;2023-11-19T05:06:48;100770.19;;;6.96;100.00
16481;BME280;44634;54.110;12.138;2023-11-19T05:09:19;100790.94;;;7.23;100.00
16481;BME280;44634;54.110;12.138;2023-11-19T05:11:50;100753.38;;;7.56;100.00
16481;BME280;44634;54.110;12.138;2023-11-19T05:14:20;100732.53;;;7.41;100.00
16481;BME280;44634;54.110;12.138;2023-11-19T05:16:59;100709.88;;;6.70;100.00
16481;BME280;44634;54.110;12.138;2023-11-19T05:19:30;100701.81;;;6.84;100.00
16481;BME280;44634;54.110;12.138;2023-11-19T05:22:14;100678.75;;;6.88;100.00
16481;BME280;44634;54.110;12.138;2023-11-19T05:24:46;100669.91;;;6.89;100.00
16481;BME280;44634;54.110;12.138;2023-11-19T05:27:15;100674.28;;;7.12;100.00
16481;BME280;44634;54.110;12.138;2023-11-19T05:29:46;100641.38;;;6.84;100.00
16481;BME280;44634;54.110;12.138;2023-11-19T05:32:15;100642.25;;;6.61;100.00
16481;BME280;44634;54.110;12.138;2023-11-19T05:34:43;100633.31;;;6.75;100.00
16481;BME280;44634;54.110;12.138;2023-11-19T05:37:17;100605.06;;;7.34;100.00
16481;BME280;44634;54.110;12.138;2023-11-19T05:39:48;100600.19;;;6.96;100.00
16481;BME280;44634;54.110;12.138;2023-11-19T05:42:17;100599.72;;;7.13;100.00
16481;BME280;44634;54.110;12.138;2023-11-19T05:44:46;100586.81;;;7.10;100.00
16481;BME280;44634;54.110;12.138;2023-11-19T05:47:14;100594.50;;;6.78;100.00
16481;BME280;44634;54.110;12.138;2023-11-19T05:49:43;100630.31;;;7.48;100.00
16481;BME280;44634;54.110;12.138;2023-11-19T05:52:11;100622.88;;;7.08;100.00
16481;BME280;44634;54.110;12.138;2023-11-19T05:54:41;100759.69;;;9.18;100.00
16481;BME280;44634;54.110;12.138;2023-11-19T05:57:14;100659.59;;;7.66;100.00
16481;BME280;44634;54.110;12.138;2023-11-19T05:59:47;100575.44;;;7.98;100.00
16481;BME280;44634;54.110;12.138;2023-11-19T06:02:15;100468.28;;;7.45;100.00
16481;BME280;44634;54.110;12.138;2023-11-19T06:04:43;100475.75;;;7.29;100.00
16481;BME280;44634;54.110;12.138;2023-11-19T06:07:16;100459.53;;;6.79;100.00
16481;BME280;44634;54.110;12.138;2023-11-19T06:09:44;100450.53;;;7.27;100.00
16481;BME280;44634;54.110;12.138;2023-11-19T06:12:16;100465.09;;;7.42;100.00
16481;BME280;44634;54.110;12.138;2023-11-19T06:14:44;100497.91;;;7.91;100.00
16481;BME280;44634;54.110;12.138;2023-11-19T06:17:12;100470.50;;;7.93;100.00
16481;BME280;44634;54.110;12.138;2023-11-19T06:19:56;100650.00;;;7.98;100.00
16481;BME280;44634;54.110;12.138;2023-11-19T06:22:24;100628.03;;;7.32;100.00
16481;BME280;44634;54.110;12.138;2023-11-19T06:24:52;100588.06;;;6.71;100.00
16481;BME280;44634;54.110;12.138;2023-11-19T06:27:23;100573.91;;;6.15;100.00
16481;BME280;44634;54.110;12.138;2023-11-19T06:29:53;100571.88;;;7.11;100.00
16481;BME280;44634;54.110;12.138;2023-11-19T06:32:26;100535.31;;;6.97;100.00
16481;BME280;44634;54.110;12.138;2023-11-19T06:34:56;100493.22;;;6.63;100.00
16481;BME280;44634;54.110;12.138;2023-11-19T06:37:24;100524.66;;;6.98;100.00
16481;BME280;44634;54.110;12.138;2023-11-19T06:39:54;100497.88;;;6.93;100.00
16481;BME280;44634;54.110;12.138;2023-11-19T06:42:24;100478.25;;;7.31;100.00
16481;BME280;44634;54.110;12.138;2023-11-19T06:44:52;100448.31;;;8.28;100.00
16481;BME280;44634;54.110;12.138;2023-11-19T06:47:22;100400.47;;;7.49;100.00
16481;BME280;44634;54.110;12.138;2023-11-19T06:49:50;100369.22;;;7.67;100.00
16481;BME280;44634;54.110;12.138;2023-11-19T06:52:18;100349.41;;;7.93;100.00
16481;BME280;44634;54.110;12.138;2023-11-19T06:54:47;100354.09;;;8.81;100.00
16481;BME280;44634;54.110;12.138;2023-11-19T06:57:16;100329.84;;;7.86;100.00
16481;BME280;44634;54.110;12.138;2023-11-19T06:59:46;100307.72;;;7.68;100.00
16481;BME280;44634;54.110;12.138;2023-11-19T07:02:14;100287.16;;;7.83;100.00
16481;BME280;44634;54.110;12.138;2023-11-19T07:04:44;100286.59;;;7.16;100.00
16481;BME280;44634;54.110;12.138;2023-11-19T07:07:12;100314.38;;;7.09;100.00
16481;BME280;44634;54.110;12.138;2023-11-19T07:09:41;100297.78;;;8.92;100.00
16481;BME280;44634;54.110;12.138;2023-11-19T07:12:17;100205.38;;;9.60;100.00
16481;BME280;44634;54.110;12.138;2023-11-19T07:15:01;100118.81;;;8.70;100.00
16481;BME280;44634;54.110;12.138;2023-11-19T07:17:30;100089.78;;;8.99;100.00
16481;BME280;44634;54.110;12.138;2023-11-19T07:20:02;100038.22;;;8.67;100.00
16481;BME280;44634;54.110;12.138;2023-11-19T07:22:31;100044.72;;;7.66;100.00
16481;BME280;44634;54.110;12.138;2023-11-19T07:24:59;100105.72;;;7.41;100.00
16481;BME280;44634;54.110;12.138;2023-11-19T07:27:29;100141.50;;;7.63;100.00
16481;BME280;44634;54.110;12.138;2023-11-19T07:29:58;100163.75;;;7.49;100.00
16481;BME280;44634;54.110;12.138;2023-11-19T07:32:28;100166.84;;;7.33;100.00
16481;BME280;44634;54.110;12.138;2023-11-19T07:34:56;100206.09;;;7.76;100.00
16481;BME280;44634;54.110;12.138;2023-11-19T07:37:29;100198.88;;;7.38;100.00
16481;BME280;44634;54.110;12.138;2023-11-19T07:39:57;100210.13;;;8.11;100.00
16481;BME280;44634;54.110;12.138;2023-11-19T07:42:25;100205.41;;;7.44;100.00
16481;BME280;44634;54.110;12.138;2023-11-19T07:44:55;100228.50;;;7.40;100.00
16481;BME280;44634;54.110;12.138;2023-11-19T07:47:23;100224.25;;;7.49;100.00
16481;BME280;44634;54.110;12.138;2023-11-19T07:49:58;100202.75;;;7.44;100.00
16481;BME280;44634;54.110;12.138;2023-11-19T07:52:29;100201.25;;;7.72;100.00
16481;BME280;44634;54.110;12.138;2023-11-19T07:54:57;100200.13;;;7.23;100.00
16481;BME280;44634;54.110;12.138;2023-11-19T07:57:28;100187.75;;;7.35;100.00
16481;BME280;44634;54.110;12.138;2023-11-19T07:59:57;100196.56;;;7.03;100.00
16481;BME280;44634;54.110;12.138;2023-11-19T08:02:27;100206.38;;;7.22;100.00
16481;BME280;44634;54.110;12.138;2023-11-19T08:05:01;100199.44;;;7.00;100.00
16481;BME280;44634;54.110;12.138;2023-11-19T08:07:29;100212.91;;;7.07;100.00
16481;BME280;44634;54.110;12.138;2023-11-19T08:10:04;100229.50;;;7.07;100.00
16481;BME280;44634;54.110;12.138;2023-11-19T08:12:32;100252.63;;;7.25;100.00
16481;BME280;44634;54.110;12.138;2023-11-19T08:15:01;100232.75;;;8.33;100.00
16481;BME280;44634;54.110;12.138;2023-11-19T08:17:31;100227.56;;;6.89;100.00
16481;BME280;44634;54.110;12.138;2023-11-19T08:19:59;100209.22;;;7.09;100.00
16481;BME280;44634;54.110;12.138;2023-11-19T08:22:29;100207.19;;;7.23;100.00
16481;BME280;44634;54.110;12.138;2023-11-19T08:24:57;100207.47;;;7.71;100.00
16481;BME280;44634;54.110;12.138;2023-11-19T08:27:26;100191.47;;;7.53;100.00
16481;BME280;44634;54.110;12.138;2023-11-19T08:29:55;100196.00;;;7.00;100.00
16481;BME280;44634;54.110;12.138;2023-11-19T08:32:23;100210.09;;;6.99;100.00
16481;BME280;44634;54.110;12.138;2023-11-19T08:34:53;100208.56;;;7.17;100.00
16481;BME280;44634;54.110;12.138;2023-11-19T08:37:22;100220.28;;;7.55;100.00
16481;BME280;44634;54.110;12.138;2023-11-19T08:39:54;100201.66;;;8.17;100.00
16481;BME280;44634;54.110;12.138;2023-11-19T08:42:22;100169.94;;;8.28;100.00
16481;BME280;44634;54.110;12.138;2023-11-19T08:44:51;100164.28;;;7.43;100.00
16481;BME280;44634;54.110;12.138;2023-11-19T08:47:21;100154.16;;;8.28;100.00
16481;BME280;44634;54.110;12.138;2023-11-19T08:49:50;100094.94;;;8.23;100.00
16481;BME280;44634;54.110;12.138;2023-11-19T08:52:25;100095.38;;;8.18;100.00
16481;BME280;44634;54.110;12.138;2023-11-19T08:55:03;100081.22;;;8.19;100.00
16481;BME280;44634;54.110;12.138;2023-11-19T08:57:34;100076.59;;;7.73;100.00
16481;BME280;44634;54.110;12.138;2023-11-19T09:00:03;100096.88;;;8.01;100.00
16481;BME280;44634;54.110;12.138;2023-11-19T09:02:34;100094.69;;;8.74;100.00
16481;BME280;44634;54.110;12.138;2023-11-19T09:05:04;100081.06;;;7.92;100.00
16481;BME280;44634;54.110;12.138;2023-11-19T09:07:36;100090.19;;;7.88;100.00
16481;BME280;44634;54.110;12.138;2023-11-19T09:10:08;100087.34;;;8.49;100.00
16481;BME280;44634;54.110;12.138;2023-11-19T09:12:39;100080.66;;;8.64;100.00
16481;BME280;44634;54.110;12.138;2023-11-19T09:15:09;100169.41;;;8.92;100.00
16481;BME280;44634;54.110;12.138;2023-11-19T09:17:39;100127.03;;;9.60;100.00
16481;BME280;44634;54.110;12.138;2023-11-19T09:20:10;100118.94;;;8.29;100.00
16481;BME280;44634;54.110;12.138;2023-11-19T09:22:42;100132.09;;;8.29;100.00
16481;BME280;44634;54.110;12.138;2023-11-19T09:25:12;100121.53;;;8.00;100.00
16481;BME280;44634;54.110;12.138;2023-11-19T09:27:43;100109.91;;;8.80;100.00
16481;BME280;44634;54.110;12.138;2023-11-19T09:30:12;100101.75;;;8.64;100.00
16481;BME280;44634;54.110;12.138;2023-11-19T09:32:41;100078.56;;;8.68;100.00
16481;BME280;44634;54.110;12.138;2023-11-19T09:35:10;100077.00;;;9.41;100.00
16481;BME280;44634;54.110;12.138;2023-11-19T09:37:40;100072.91;;;8.72;100.00
16481;BME280;44634;54.110;12.138;2023-11-19T09:43:06;100079.03;;;9.10;100.00
16481;BME280;44634;54.110;12.138;2023-11-19T09:45:45;100050.31;;;9.07;100.00
16481;BME280;44634;54.110;12.138;2023-11-19T09:48:20;100030.19;;;8.69;100.00
16481;BME280;44634;54.110;12.138;2023-11-19T09:50:49;100041.78;;;9.22;100.00
16481;BME280;44634;54.110;12.138;2023-11-19T09:53:20;100042.75;;;9.21;100.00
16481;BME280;44634;54.110;12.138;2023-11-19T09:55:52;100038.50;;;9.38;100.00
16481;BME280;44634;54.110;12.138;2023-11-19T09:58:27;100029.59;;;9.67;100.00
16481;BME280;44634;54.110;12.138;2023-11-19T10:01:13;100016.50;;;9.30;100.00
16481;BME280;44634;54.110;12.138;2023-11-19T10:04:00;100003.66;;;9.62;100.00
16481;BME280;44634;54.110;12.138;2023-11-19T10:06:30;99981.50;;;9.91;100.00
16481;BME280;44634;54.110;12.138;2023-11-19T10:09:14;99988.72;;;9.53;100.00
16481;BME280;44634;54.110;12.138;2023-11-19T10:11:50;99979.25;;;9.33;100.00
16481;BME280;44634;54.110;12.138;2023-11-19T10:14:27;99967.06;;;10.21;100.00
16481;BME280;44634;54.110;12.138;2023-11-19T10:17:00;99941.72;;;10.28;100.00
16481;BME280;44634;54.110;12.138;2023-11-19T10:19:35;99923.75;;;11.08;100.00
16481;BME280;44634;54.110;12.138;2023-11-19T10:22:06;99892.28;;;10.88;100.00
16481;BME280;44634;54.110;12.138;2023-11-19T10:24:35;99870.94;;;11.48;100.00
16481;BME280;44634;54.110;12.138;2023-11-19T10:30:21;99824.94;;;11.74;100.00
16481;BME280;44634;54.110;12.138;2023-11-19T10:35:51;99821.09;;;11.68;100.00
16481;BME280;44634;54.110;12.138;2023-11-19T10:38:23;99826.25;;;11.61;100.00
16481;BME280;44634;54.110;12.138;2023-11-19T10:41:00;99834.16;;;11.05;100.00
16481;BME280;44634;54.110;12.138;2023-11-19T10:43:29;99854.69;;;11.68;100.00
16481;BME280;44634;54.110;12.138;2023-11-19T10:46:10;99840.47;;;11.77;100.00
16481;BME280;44634;54.110;12.138;2023-11-19T10:48:38;99826.75;;;11.32;100.00
16481;BME280;44634;54.110;12.138;2023-11-19T10:51:12;99838.34;;;11.48;100.00
16481;BME280;44634;54.110;12.138;2023-11-19T10:53:45;99828.84;;;12.10;100.00
16481;BME280;44634;54.110;12.138;2023-11-19T10:56:23;99816.16;;;11.49;100.00
16481;BME280;44634;54.110;12.138;2023-11-19T10:59:24;99835.53;;;11.74;100.00
16481;BME280;44634;54.110;12.138;2023-11-19T11:02:19;99838.16;;;12.06;100.00
16481;BME280;44634;54.110;12.138;2023-11-19T11:07:34;99777.97;;;12.23;100.00
16481;BME280;44634;54.110;12.138;2023-11-19T11:10:09;99778.44;;;12.27;100.00
16481;BME280;44634;54.110;12.138;2023-11-19T11:13:07;99773.69;;;12.84;100.00
16481;BME280;44634;54.110;12.138;2023-11-19T11:19:02;99755.94;;;13.68;100.00
16481;BME280;44634;54.110;12.138;2023-11-19T11:21:36;99717.97;;;12.84;100.00
16481;BME280;44634;54.110;12.138;2023-11-19T11:24:24;99738.53;;;13.51;100.00
16481;BME280;44634;54.110;12.138;2023-11-19T11:34:42;99866.22;;;13.18;100.00
16481;BME280;44634;54.110;12.138;2023-11-19T11:38:15;99877.13;;;13.23;100.00
16481;BME280;44634;54.110;12.138;2023-11-19T11:41:31;99886.28;;;13.66;100.00
16481;BME280;44634;54.110;12.138;2023-11-19T11:48:49;99893.63;;;13.64;100.00
16481;BME280;44634;54.110;12.138;2023-11-19T11:55:29;99840.94;;;14.20;100.00
16481;BME280;44634;54.110;12.138;2023-11-19T11:58:47;99884.09;;;14.08;100.00
16481;BME280;44634;54.110;12.138;2023-11-19T12:04:50;99906.84;;;14.63;100.00
16481;BME280;44634;54.110;12.138;2023-11-19T12:35:14;99805.81;;;14.69;100.00
16481;BME280;44634;54.110;12.138;2023-11-19T12:41:21;99815.38;;;14.49;100.00
16481;BME280;44634;54.110;12.138;2023-11-19T12:45:04;99830.06;;;14.96;100.00
16481;BME280;44634;54.110;12.138;2023-11-19T13:11:13;99744.91;;;15.45;100.00
16481;BME280;44634;54.110;12.138;2023-11-19T13:14:04;99719.53;;;15.49;100.00
16481;BME280;44634;54.110;12.138;2023-11-19T13:19:39;99655.28;;;16.74;100.00
16481;BME280;44634;54.110;12.138;2023-11-19T13:22:11;99606.41;;;17.00;100.00
16481;BME280;44634;54.110;12.138;2023-11-19T15:55:16;99797.31;;;15.59;100.00
16481;BME280;44634;54.110;12.138;2023-11-19T15:57:44;99766.91;;;15.32;100.00
16481;BME280;44634;54.110;12.138;2023-11-19T16:45:14;99880.06;;;14.12;100.00
16481;BME280;44634;54.110;12.138;2023-11-19T16:47:44;99858.28;;;14.46;100.00
16481;BME280;44634;54.110;12.138;2023-11-19T16:50:28;99859.63;;;14.12;100.00
16481;BME280;44634;54.110;12.138;2023-11-19T16:53:05;99824.56;;;14.61;100.00
16481;BME280;44634;54.110;12.138;2023-11-19T16:55:45;99834.16;;;14.77;100.00
16481;BME280;44634;54.110;12.138;2023-11-19T16:58:24;99833.53;;;14.45;100.00
16481;BME280;44634;54.110;12.138;2023-11-19T17:01:05;99821.97;;;14.53;100.00
16481;BME280;44634;54.110;12.138;2023-11-19T17:03:36;99834.06;;;14.26;100.00
16481;BME280;44634;54.110;12.138;2023-11-19T17:06:46;99841.84;;;14.13;100.00
16481;BME280;44634;54.110;12.138;2023-11-19T17:10:02;99875.19;;;14.00;100.00
16481;BME280;44634;54.110;12.138;2023-11-19T17:12:58;99883.34;;;13.99;100.00
16481;BME280;44634;54.110;12.138;2023-11-19T17:15:39;99876.91;;;14.90;100.00
16481;BME280;44634;54.110;12.138;2023-11-19T17:18:08;99862.50;;;14.25;100.00
16481;BME280;44634;54.110;12.138;2023-11-19T17:20:36;99846.81;;;14.30;100.00
16481;BME280;44634;54.110;12.138;2023-11-19T17:23:07;99836.31;;;14.88;100.00
16481;BME280;44634;54.110;12.138;2023-11-19T17:25:35;99841.47;;;14.30;100.00
16481;BME280;44634;54.110;12.138;2023-11-19T17:28:05;99866.47;;;14.44;100.00
16481;BME280;44634;54.110;12.138;2023-11-19T17:30:36;99881.88;;;14.49;100.00
16481;BME280;44634;54.110;12.138;2023-11-19T17:33:05;99863.81;;;14.44;100.00
16481;BME280;44634;54.110;12.138;2023-11-19T17:35:34;99866.25;;;14.90;100.00
16481;BME280;44634;54.110;12.138;2023-11-19T17:38:07;99863.97;;;14.57;100.00
16481;BME280;44634;54.110;12.138;2023-11-19T17:40:40;99846.28;;;14.65;100.00
16481;BME280;44634;54.110;12.138;2023-11-19T17:43:14;99844.13;;;14.30;100.00
16481;BME280;44634;54.110;12.138;2023-11-19T17:45:44;99849.59;;;14.52;100.00
16481;BME280;44634;54.110;12.138;2023-11-19T17:48:14;99857.09;;;14.19;100.00
16481;BME280;44634;54.110;12.138;2023-11-19T17:53:34;99814.16;;;14.66;100.00
16481;BME280;44634;54.110;12.138;2023-11-19T17:56:05;99799.41;;;15.21;100.00
16481;BME280;44634;54.110;12.138;2023-11-19T17:58:34;99787.03;;;15.13;100.00
16481;BME280;44634;54.110;12.138;2023-11-19T18:01:10;99791.63;;;14.47;100.00